Terminal Aerodrome Forecast
Issued by NWS Indianapolis, IN

Home | Current Version | Previous Version | Text Only | Print | Product List | Glossary On
Versions: 1 2 3 4 5 6 7 8 9 10 11 12 13 14 15 16 17 18 19 20 21 22 23 24 25 26 27 28 29 30 31 32 33 34 35 36 37 38 39 40 41 42 43 44 45 46 47 48 49 50
000
FTUS43 KIND 181120
TAFIND
TAF
KIND 181120Z 1812/1918 VRB03KT 6SM BR OVC007
     FM181800 00000KT P6SM OVC010
     FM190800 08008KT 3SM -SN BR OVC007
     FM191100 07009KT 1 1/2SM -FZRASN BR OVC007
     FM191700 04013G24KT 1/2SM SN FZFG OVC005=

USA.gov is the U.S. government's official web portal to all federal, state and local government web resources and services.